Erlton, New Jersey
Current Conditions -  °F | °C
As of 12:54 AM on Sunday 26 Oct 2014 (Local Time) from KVAY Reporting Station
Overcast Overcast  
Wind Chill: 58°   Ceiling: 7000
Heat Index: 58°   Visibility: 10mi
Dew Point: 43°   Wind: 8mph
Humidity: 58%   Direction: 230°SW
Pressure: 29.61"   Gusts: NA
Location:  39.9312°N, 75.0244°W
Report Text: KVAY 260454Z AUTO 23007KT 10SM BKN070 OVC095 14/06 A2961 RMK AO2 SLP025 T01440061 402000028
Loading
Personal Weather Stations






























Interactive Weather Map
Tropical Storm Tracking
New forecast layout! Learn more

10-Day Weather Forecast

Advertisements
Track Severe Weather on mobile